Time;durP1;ratioP1;P1;durP2;ratioP2;P2;SDS_P1;SDS_P2;PMS_P1;PMS_P2;Temp;Humidity;BMP_temperature;BMP_pressure;BME280_temperature;BME280_humidity;BME280_pressure;Samples;Min_cycle;Max_cycle;Signal;HPM_P1;HPM_P2
2023/01/21 00:02:14;;;;;;;;;;;-0.40;99.90;;;;;;5039222;28;20375;-72
2023/01/21 00:04:39;;;;;;;;;;;-0.40;99.90;;;;;;4995836;28;224124;-72
2023/01/21 00:07:06;;;;;;;;;;;-0.40;99.90;;;;;;5042719;28;20388;-72
2023/01/21 00:09:32;;;;;;;;;;;-0.30;99.90;;;;;;4980076;28;89685;-71
2023/01/21 00:12:01;;;;;;;;;;;-0.30;99.90;;;;;;5044753;28;19920;-72
2023/01/21 00:14:28;;;;;;;;;;;-0.30;99.90;;;;;;5013401;28;209270;-72
2023/01/21 00:16:54;;;;;;;;;;;-0.30;99.90;;;;;;5061976;28;19920;-71
2023/01/21 00:19:20;;;;;;;;;;;-0.30;99.90;;;;;;4986772;28;192270;-72
2023/01/21 00:21:46;;;;;;;;;;;-0.20;99.90;;;;;;5040256;28;19928;-71
2023/01/21 00:24:12;;;;;;;;;;;-0.30;99.90;;;;;;4997012;28;192028;-71
2023/01/21 00:26:38;;;;;;;;;;;-0.20;99.90;;;;;;5044561;28;19924;-71
2023/01/21 00:29:04;;;;;;;;;;;-0.20;99.90;;;;;;5016511;28;208663;-71
2023/01/21 00:31:30;;;;;;;;;;;-0.30;99.90;;;;;;5034431;28;20524;-72
2023/01/21 00:33:55;;;;;;;;;;;-0.30;99.90;;;;;;5011281;28;208532;-71
2023/01/21 00:36:23;;;;;;;;;;;-0.20;99.90;;;;;;5071027;28;20981;-71
2023/01/21 00:38:49;;;;;;;;;;;-0.20;99.90;;;;;;4985984;28;237491;-72
2023/01/21 00:41:16;;;;;;;;;;;-0.20;99.90;;;;;;5047602;28;20034;-72
2023/01/21 00:43:42;;;;;;;;;;;-0.20;99.90;;;;;;4983217;28;206286;-72
2023/01/21 00:46:09;;;;;;;;;;;-0.20;99.90;;;;;;5031759;28;20534;-71
2023/01/21 00:48:35;;;;;;;;;;;-0.20;99.90;;;;;;5004475;28;206423;-70
2023/01/21 00:51:01;;;;;;;;;;;-0.20;99.90;;;;;;5072107;28;19928;-71
2023/01/21 00:53:28;;;;;;;;;;;-0.20;99.90;;;;;;5006510;28;209547;-70
2023/01/21 00:55:57;;;;;;;;;;;-0.30;99.90;;;;;;5036124;28;20466;-72
2023/01/21 00:58:23;;;;;;;;;;;-0.40;99.90;;;;;;5000873;28;178434;-71
2023/01/21 01:00:49;;;;;;;;;;;-0.50;99.90;;;;;;5043536;28;19928;-70
2023/01/21 01:03:15;;;;;;;;;;;-0.50;99.90;;;;;;4982555;28;200609;-70
2023/01/21 01:05:41;;;;;;;;;;;-0.60;99.90;;;;;;5036445;28;19942;-72
2023/01/21 01:08:07;;;;;;;;;;;-0.70;99.90;;;;;;4984194;28;218498;-71
2023/01/21 01:10:35;;;;;;;;;;;-0.80;99.90;;;;;;5009274;28;20571;-71
2023/01/21 01:13:01;;;;;;;;;;;-0.80;99.90;;;;;;4975989;28;212150;-70
2023/01/21 01:15:27;;;;;;;;;;;-0.90;99.90;;;;;;5025329;28;20944;-71
2023/01/21 01:17:53;;;;;;;;;;;-1.00;99.90;;;;;;4978534;28;206317;-71
2023/01/21 01:20:19;;;;;;;;;;;-1.00;99.90;;;;;;5039872;28;20393;-71
2023/01/21 01:22:45;;;;;;;;;;;-1.10;99.90;;;;;;4966566;28;208414;-71
2023/01/21 01:25:11;;;;;;;;;;;-1.10;99.90;;;;;;5041009;28;19924;-71
2023/01/21 01:27:37;;;;;;;;;;;-1.20;99.90;;;;;;4990874;28;227659;-71
2023/01/21 01:30:04;;;;;;;;;;;-1.30;99.90;;;;;;5065673;28;20459;-71
2023/01/21 01:32:30;;;;;;;;;;;-1.30;99.90;;;;;;5020787;28;248188;-71
2023/01/21 01:34:56;;;;;;;;;;;-1.30;99.90;;;;;;5010410;28;143528;-70
2023/01/21 01:37:22;;;;;;;;;;;-1.40;99.90;;;;;;5054611;28;19933;-71
2023/01/21 01:39:48;;;;;;;;;;;-1.40;99.90;;;;;;5011574;28;138047;-71
2023/01/21 01:42:14;;;;;;;;;;;-1.50;99.90;;;;;;5029022;28;20462;-71
2023/01/21 01:44:52;;;;;;;;;;;-1.50;99.90;;;;;;4987316;28;206969;-71
2023/01/21 01:47:19;;;;;;;;;;;-1.60;99.90;;;;;;5041636;28;19920;-71
2023/01/21 01:49:45;;;;;;;;;;;-1.60;99.90;;;;;;4998201;28;217929;-71
2023/01/21 01:52:11;;;;;;;;;;;-1.60;99.90;;;;;;5062216;28;19921;-71
2023/01/21 01:54:43;;;;;;;;;;;-1.70;99.90;;;;;;4997253;28;206070;-71
2023/01/21 01:57:11;;;;;;;;;;;-1.70;99.90;;;;;;5066194;28;19925;-71
2023/01/21 01:59:38;;;;;;;;;;;-1.70;99.90;;;;;;4979558;28;211861;-71
2023/01/21 02:02:08;;;;;;;;;;;-1.80;99.90;;;;;;5027989;28;20317;-70
2023/01/21 02:04:37;;;;;;;;;;;-1.80;99.90;;;;;;4998972;28;208475;-71
2023/01/21 02:07:03;;;;;;;;;;;-1.90;99.90;;;;;;5046494;28;19921;-71
2023/01/21 02:09:29;;;;;;;;;;;-1.80;99.90;;;;;;5014108;28;227669;-70
2023/01/21 02:11:59;;;;;;;;;;;-1.80;99.90;;;;;;5066089;28;19920;-70
2023/01/21 02:14:26;;;;;;;;;;;-1.90;99.90;;;;;;4996558;28;210182;-70
2023/01/21 02:17:00;;;;;;;;;;;-1.90;99.90;;;;;;5064223;28;19943;-71
2023/01/21 02:19:44;;;;;;;;;;;-1.90;99.90;;;;;;4983713;28;226882;-70
2023/01/21 02:22:26;;;;;;;;;;;-2.00;99.90;;;;;;5025311;28;19928;-70
2023/01/21 02:24:55;;;;;;;;;;;-2.00;99.90;;;;;;4992555;28;230954;-70
2023/01/21 02:27:35;;;;;;;;;;;-2.00;99.90;;;;;;5044153;28;19928;-70
2023/01/21 02:30:16;;;;;;;;;;;-2.00;99.90;;;;;;4986074;28;213739;-69
2023/01/21 02:33:03;;;;;;;;;;;-2.10;99.90;;;;;;5026491;28;209234;-70
2023/01/21 02:35:32;;;;;;;;;;;-2.10;99.90;;;;;;5062080;28;20416;-70
2023/01/21 02:37:58;;;;;;;;;;;-2.10;99.90;;;;;;4996687;28;210105;-71
2023/01/21 02:40:29;;;;;;;;;;;-2.10;99.90;;;;;;5040282;28;19933;-71
2023/01/21 02:43:00;;;;;;;;;;;-2.10;99.90;;;;;;5004845;28;228470;-71
2023/01/21 02:45:32;;;;;;;;;;;-2.00;99.90;;;;;;5024776;28;19920;-71
2023/01/21 02:48:07;;;;;;;;;;;-2.10;99.90;;;;;;4990306;28;234619;-70
2023/01/21 02:50:34;;;;;;;;;;;-2.10;99.90;;;;;;5064704;28;19920;-71
2023/01/21 02:53:02;;;;;;;;;;;-2.10;99.90;;;;;;5009583;28;209734;-70
2023/01/21 02:55:33;;;;;;;;;;;-2.10;99.90;;;;;;5037469;28;19921;-70
2023/01/21 02:58:09;;;;;;;;;;;-2.20;99.90;;;;;;4998104;28;57823;-71
2023/01/21 03:00:50;;;;;;;;;;;-2.20;99.90;;;;;;5032488;28;19920;-70
2023/01/21 03:03:33;;;;;;;;;;;-2.20;99.90;;;;;;4980669;28;136450;-71
2023/01/21 03:06:08;;;;;;;;;;;-2.20;99.90;;;;;;5007328;28;19931;-71
2023/01/21 03:08:44;;;;;;;;;;;-2.20;99.90;;;;;;4994233;28;208540;-70
2023/01/21 03:11:15;;;;;;;;;;;-2.30;99.90;;;;;;5033288;28;19936;-71
2023/01/21 03:17:16;;;;;;;;;;;-2.30;99.90;;;;;;5024950;28;19924;-71
2023/01/21 03:19:18;;;;;;;;;;;-2.30;99.90;;;;;;4966925;28;213087;-70
2023/01/21 03:21:45;;;;;;;;;;;-2.30;99.90;;;;;;5021202;28;20313;-71
2023/01/21 03:24:11;;;;;;;;;;;-2.30;99.90;;;;;;4975144;28;175198;-71
2023/01/21 03:26:39;;;;;;;;;;;-2.30;99.90;;;;;;5038220;28;19933;-71
2023/01/21 03:29:14;;;;;;;;;;;-2.20;99.90;;;;;;4976595;28;211820;-71
2023/01/21 03:31:42;;;;;;;;;;;-2.20;99.90;;;;;;5034843;28;19925;-71
2023/01/21 03:34:10;;;;;;;;;;;-2.10;99.90;;;;;;4945968;28;208390;-71
2023/01/21 03:36:56;;;;;;;;;;;-2.00;99.90;;;;;;5044540;28;20427;-71
2023/01/21 03:39:31;;;;;;;;;;;-2.00;99.90;;;;;;4976740;28;209395;-71
2023/01/21 03:41:57;;;;;;;;;;;-1.90;99.90;;;;;;5040239;28;19921;-71
2023/01/21 03:44:23;;;;;;;;;;;-1.80;99.90;;;;;;4980213;28;208685;-71
2023/01/21 03:47:00;;;;;;;;;;;-1.70;99.90;;;;;;5025612;28;19931;-72
2023/01/21 03:49:33;;;;;;;;;;;-1.60;99.90;;;;;;4986697;28;220341;-72
2023/01/21 03:52:00;;;;;;;;;;;-1.60;99.90;;;;;;5055804;28;19940;-72
2023/01/21 03:54:26;;;;;;;;;;;-1.50;99.90;;;;;;4994955;28;159104;-72
2023/01/21 03:56:52;;;;;;;;;;;-1.40;99.90;;;;;;5028479;28;19931;-72
2023/01/21 03:59:18;;;;;;;;;;;-1.30;99.90;;;;;;4981539;28;205065;-73
2023/01/21 04:01:44;;;;;;;;;;;-1.20;99.90;;;;;;5040789;28;20401;-71
2023/01/21 04:04:10;;;;;;;;;;;-1.20;99.90;;;;;;4975107;28;222312;-71
2023/01/21 04:06:35;;;;;;;;;;;-1.20;99.90;;;;;;5043808;28;20276;-71
2023/01/21 04:09:02;;;;;;;;;;;-1.10;99.90;;;;;;4973972;28;212980;-71
2023/01/21 04:11:28;;;;;;;;;;;-1.10;99.90;;;;;;5021105;28;19932;-71
2023/01/21 04:13:54;;;;;;;;;;;-1.10;99.90;;;;;;4986915;28;211936;-72
2023/01/21 04:16:20;;;;;;;;;;;-1.10;99.90;;;;;;5038102;28;19924;-72
2023/01/21 04:18:46;;;;;;;;;;;-1.10;99.90;;;;;;4990329;28;211390;-72
2023/01/21 04:21:12;;;;;;;;;;;-1.10;99.90;;;;;;5042091;28;20382;-72
2023/01/21 04:23:38;;;;;;;;;;;-1.20;99.90;;;;;;4982882;28;206821;-71
2023/01/21 04:26:04;;;;;;;;;;;-1.20;99.90;;;;;;5043892;28;19996;-71
2023/01/21 04:28:30;;;;;;;;;;;-1.20;99.90;;;;;;4988220;28;216105;-72
2023/01/21 04:30:56;;;;;;;;;;;-1.20;99.90;;;;;;5058835;28;19927;-71
2023/01/21 04:33:22;;;;;;;;;;;-1.30;99.90;;;;;;5002881;28;208268;-71
2023/01/21 04:35:48;;;;;;;;;;;-1.30;99.90;;;;;;5027149;28;19931;-71
2023/01/21 04:38:14;;;;;;;;;;;-1.30;99.90;;;;;;4985980;28;101878;-72
2023/01/21 04:40:40;;;;;;;;;;;-1.30;99.90;;;;;;5042494;28;19924;-72
2023/01/21 04:43:06;;;;;;;;;;;-1.40;99.90;;;;;;4969284;28;212287;-71
2023/01/21 04:45:32;;;;;;;;;;;-1.40;99.90;;;;;;5020739;28;19921;-72
2023/01/21 04:47:58;;;;;;;;;;;-1.50;99.90;;;;;;4984560;28;214313;-71
2023/01/21 04:50:24;;;;;;;;;;;-1.50;99.90;;;;;;5016278;28;19929;-71
2023/01/21 04:52:50;;;;;;;;;;;-1.50;99.90;;;;;;4986762;28;208318;-71
2023/01/21 04:55:16;;;;;;;;;;;-1.50;99.90;;;;;;5045701;28;20323;-71
2023/01/21 04:57:42;;;;;;;;;;;-1.50;99.90;;;;;;4979738;28;211603;-71
2023/01/21 05:00:08;;;;;;;;;;;-1.60;99.90;;;;;;5049532;28;19931;-71
2023/01/21 05:02:34;;;;;;;;;;;-1.60;99.90;;;;;;5026449;28;208517;-72
2023/01/21 05:05:00;;;;;;;;;;;-1.60;99.90;;;;;;4986105;28;19920;-71
2023/01/21 05:07:26;;;;;;;;;;;-1.60;99.90;;;;;;5026381;28;208253;-71
2023/01/21 05:09:52;;;;;;;;;;;-1.60;99.90;;;;;;5020325;28;199246;-70
2023/01/21 05:12:18;;;;;;;;;;;-1.60;99.90;;;;;;5061744;28;20244;-71
2023/01/21 05:14:44;;;;;;;;;;;-1.50;99.90;;;;;;5009305;28;212814;-71
2023/01/21 05:17:10;;;;;;;;;;;-1.50;99.90;;;;;;5064299;28;19924;-70
2023/01/21 05:19:36;;;;;;;;;;;-1.50;99.90;;;;;;4995306;28;209039;-71
2023/01/21 05:22:02;;;;;;;;;;;-1.40;99.90;;;;;;5047451;28;19948;-71
2023/01/21 05:24:28;;;;;;;;;;;-1.30;99.90;;;;;;4970171;28;210314;-71
2023/01/21 05:26:54;;;;;;;;;;;-1.30;99.90;;;;;;5045981;28;20024;-71
2023/01/21 05:29:20;;;;;;;;;;;-1.20;99.90;;;;;;4992645;28;211855;-71
2023/01/21 05:31:46;;;;;;;;;;;-1.10;99.90;;;;;;5029565;28;19970;-71
2023/01/21 05:34:12;;;;;;;;;;;-1.10;99.90;;;;;;4995022;28;32525;-71
2023/01/21 05:36:38;;;;;;;;;;;-1.10;99.90;;;;;;5042418;28;19925;-73
2023/01/21 05:39:04;;;;;;;;;;;-1.10;99.90;;;;;;4987247;28;209257;-72
2023/01/21 05:41:30;;;;;;;;;;;-1.00;99.90;;;;;;5059853;28;19928;-72
2023/01/21 05:43:56;;;;;;;;;;;-1.00;99.90;;;;;;4974558;28;197681;-72
2023/01/21 05:46:22;;;;;;;;;;;-1.00;99.90;;;;;;5044762;28;19954;-72
2023/01/21 05:48:48;;;;;;;;;;;-1.10;99.90;;;;;;5002883;28;198939;-73
2023/01/21 05:51:14;;;;;;;;;;;-1.00;99.90;;;;;;5051868;28;19924;-72
2023/01/21 05:53:40;;;;;;;;;;;-0.90;99.90;;;;;;5003312;28;36621;-72
2023/01/21 05:56:07;;;;;;;;;;;-0.90;99.90;;;;;;5065291;28;19932;-72
2023/01/21 05:58:33;;;;;;;;;;;-0.90;99.90;;;;;;5013495;28;215179;-72
2023/01/21 06:00:59;;;;;;;;;;;-0.90;99.90;;;;;;5043078;28;19967;-73
2023/01/21 06:03:25;;;;;;;;;;;-0.80;99.90;;;;;;4984284;28;210506;-72
2023/01/21 06:05:51;;;;;;;;;;;-0.80;99.90;;;;;;5019999;28;19931;-72
2023/01/21 06:08:17;;;;;;;;;;;-0.80;99.90;;;;;;4980252;28;208976;-71
2023/01/21 06:10:43;;;;;;;;;;;-0.80;99.90;;;;;;5027858;28;20428;-72
2023/01/21 06:13:12;;;;;;;;;;;-0.70;99.90;;;;;;5007767;28;211430;-72
2023/01/21 06:15:38;;;;;;;;;;;-0.70;99.90;;;;;;5044240;28;19940;-72
2023/01/21 06:18:04;;;;;;;;;;;-0.70;99.90;;;;;;4985499;28;212648;-71
2023/01/21 06:20:30;;;;;;;;;;;-0.70;99.90;;;;;;5026409;28;19925;-72
2023/01/21 06:22:57;;;;;;;;;;;-0.60;99.90;;;;;;4989279;28;97899;-72
2023/01/21 06:25:23;;;;;;;;;;;-0.60;99.90;;;;;;5072478;28;19932;-71
2023/01/21 06:27:49;;;;;;;;;;;-0.70;99.90;;;;;;5000964;28;219599;-72
2023/01/21 06:30:15;;;;;;;;;;;-0.70;99.90;;;;;;5071963;28;19946;-72
2023/01/21 06:32:41;;;;;;;;;;;-0.60;99.90;;;;;;5004689;28;246780;-73
2023/01/21 06:35:07;;;;;;;;;;;-0.60;99.90;;;;;;5055368;28;20304;-72
2023/01/21 06:37:33;;;;;;;;;;;-0.60;99.90;;;;;;5006129;28;209210;-72
2023/01/21 06:39:59;;;;;;;;;;;-0.60;99.90;;;;;;5043682;28;213094;-71
2023/01/21 06:42:25;;;;;;;;;;;-0.60;99.90;;;;;;5036186;28;243225;-73
2023/01/21 06:44:51;;;;;;;;;;;-0.60;99.90;;;;;;5019385;28;176950;-73
2023/01/21 06:47:17;;;;;;;;;;;-0.60;99.90;;;;;;5067247;28;19940;-72
2023/01/21 06:49:43;;;;;;;;;;;-0.50;99.90;;;;;;5015119;28;216973;-71
2023/01/21 06:52:09;;;;;;;;;;;-0.50;99.90;;;;;;5047358;28;19924;-73
2023/01/21 06:54:35;;;;;;;;;;;-0.50;99.90;;;;;;4988815;28;214411;-73
2023/01/21 06:57:01;;;;;;;;;;;-0.60;99.90;;;;;;5046655;28;19946;-72
2023/01/21 06:59:27;;;;;;;;;;;-0.50;99.90;;;;;;5001077;28;194031;-71
2023/01/21 07:01:53;;;;;;;;;;;-0.50;99.90;;;;;;5048663;28;20128;-73
2023/01/21 07:04:19;;;;;;;;;;;-0.50;99.90;;;;;;4984988;28;208689;-71
2023/01/21 07:06:45;;;;;;;;;;;-0.50;99.90;;;;;;5029405;28;19925;-71
2023/01/21 07:09:11;;;;;;;;;;;-0.60;99.90;;;;;;4999844;28;212634;-72
2023/01/21 07:11:37;;;;;;;;;;;-0.60;99.90;;;;;;5031227;28;20389;-72
2023/01/21 07:14:03;;;;;;;;;;;-0.60;99.90;;;;;;5004053;28;212802;-73
2023/01/21 07:16:29;;;;;;;;;;;-0.60;99.90;;;;;;5022222;28;19924;-72
2023/01/21 07:18:55;;;;;;;;;;;-0.60;99.90;;;;;;4986054;28;212760;-72
2023/01/21 07:21:22;;;;;;;;;;;-0.60;99.90;;;;;;5038074;28;20419;-72
2023/01/21 07:23:50;;;;;;;;;;;-0.60;99.90;;;;;;5005476;28;207650;-71
2023/01/21 07:26:16;;;;;;;;;;;-0.60;99.90;;;;;;5037336;28;20859;-74
2023/01/21 07:28:42;;;;;;;;;;;-0.60;99.90;;;;;;4992353;28;87365;-72
2023/01/21 07:31:08;;;;;;;;;;;-0.60;99.90;;;;;;5049625;28;19920;-73
2023/01/21 07:33:34;;;;;;;;;;;-0.60;99.90;;;;;;4991798;28;159625;-72
2023/01/21 07:36:00;;;;;;;;;;;-0.60;99.90;;;;;;5037857;28;19921;-73
2023/01/21 07:38:26;;;;;;;;;;;-0.60;99.90;;;;;;4969616;28;206942;-73
2023/01/21 07:40:51;;;;;;;;;;;-0.60;99.90;;;;;;5045679;28;19944;-73
2023/01/21 07:43:17;;;;;;;;;;;-0.60;99.90;;;;;;5000285;28;214509;-73
2023/01/21 07:45:43;;;;;;;;;;;-0.60;99.90;;;;;;5037633;28;19927;-72
2023/01/21 07:48:09;;;;;;;;;;;-0.70;99.90;;;;;;4990103;28;209996;-73
2023/01/21 07:50:36;;;;;;;;;;;-0.70;99.90;;;;;;5036791;28;19929;-73
2023/01/21 07:53:03;;;;;;;;;;;-0.80;99.90;;;;;;4995192;28;160979;-72
2023/01/21 07:55:29;;;;;;;;;;;-0.80;99.90;;;;;;5000502;28;19925;-72
2023/01/21 07:57:56;;;;;;;;;;;-0.90;99.90;;;;;;4977385;28;388312;-72
2023/01/21 08:00:23;;;;;;;;;;;-0.90;99.90;;;;;;5005687;28;20309;-72
2023/01/21 08:02:53;;;;;;;;;;;-0.90;99.90;;;;;;4986711;28;208878;-72
2023/01/21 08:05:19;;;;;;;;;;;-1.00;99.90;;;;;;5067280;28;19943;-72
2023/01/21 08:07:45;;;;;;;;;;;-1.00;99.90;;;;;;4993382;28;208901;-72
2023/01/21 08:10:11;;;;;;;;;;;-1.10;99.90;;;;;;4992387;28;20361;-74
2023/01/21 08:12:36;;;;;;;;;;;-1.10;99.90;;;;;;4994107;28;207663;-72
2023/01/21 08:15:03;;;;;;;;;;;-1.20;99.90;;;;;;5036577;28;19931;-73
2023/01/21 08:17:28;;;;;;;;;;;-1.20;99.90;;;;;;5029142;28;216568;-72
2023/01/21 08:19:55;;;;;;;;;;;-1.20;99.90;;;;;;5035635;28;76615;-74
2023/01/21 08:22:21;;;;;;;;;;;-1.30;99.90;;;;;;5053893;28;19936;-73
2023/01/21 08:24:47;;;;;;;;;;;-1.30;99.90;;;;;;4996463;28;208533;-73
2023/01/21 08:27:12;;;;;;;;;;;-1.30;99.90;;;;;;5045056;28;19929;-73
2023/01/21 08:29:38;;;;;;;;;;;-1.30;99.90;;;;;;5014157;28;208550;-73
2023/01/21 08:32:04;;;;;;;;;;;-1.40;99.90;;;;;;5045054;28;19974;-72
2023/01/21 08:34:30;;;;;;;;;;;-1.30;99.90;;;;;;4982738;28;213419;-73
2023/01/21 08:36:56;;;;;;;;;;;-1.40;99.90;;;;;;5050111;28;20301;-72
2023/01/21 08:39:22;;;;;;;;;;;-1.30;99.90;;;;;;4990552;28;208519;-72
2023/01/21 08:41:48;;;;;;;;;;;-1.40;99.90;;;;;;5038225;28;20453;-72
2023/01/21 08:44:14;;;;;;;;;;;-1.30;99.90;;;;;;5012201;28;215751;-73
2023/01/21 08:46:40;;;;;;;;;;;-1.30;99.90;;;;;;5045652;28;19974;-73
2023/01/21 08:49:06;;;;;;;;;;;-1.30;99.90;;;;;;4983406;28;208651;-73
2023/01/21 08:51:32;;;;;;;;;;;-1.30;99.90;;;;;;5047350;28;19920;-73
2023/01/21 08:53:58;;;;;;;;;;;-1.20;99.90;;;;;;4980782;28;208864;-72
2023/01/21 08:56:24;;;;;;;;;;;-1.10;99.90;;;;;;5042635;28;19921;-72
2023/01/21 08:58:53;;;;;;;;;;;-1.00;99.90;;;;;;4989365;28;211905;-72
2023/01/21 09:01:19;;;;;;;;;;;-0.90;99.90;;;;;;5028356;28;20319;-73
2023/01/21 09:03:45;;;;;;;;;;;-0.80;99.90;;;;;;4967125;28;208333;-73
2023/01/21 09:06:11;;;;;;;;;;;-0.70;99.90;;;;;;5017579;28;20388;-73
2023/01/21 09:08:38;;;;;;;;;;;-0.60;99.90;;;;;;4994817;28;209276;-71
2023/01/21 09:11:05;;;;;;;;;;;-0.50;99.90;;;;;;5043962;28;20412;-72
2023/01/21 09:13:32;;;;;;;;;;;-0.50;99.90;;;;;;5006208;28;218093;-72
2023/01/21 09:15:58;;;;;;;;;;;-0.50;99.90;;;;;;5029948;28;19921;-73
2023/01/21 09:18:24;;;;;;;;;;;-0.40;99.90;;;;;;5003945;28;34054;-72
2023/01/21 09:20:50;;;;;;;;;;;-0.40;99.90;;;;;;5031528;28;20297;-73
2023/01/21 09:23:26;;;;;;;;;;;-0.40;99.90;;;;;;4990863;28;218291;-73
2023/01/21 09:25:52;;;;;;;;;;;-0.40;99.90;;;;;;5008854;28;20316;-72
2023/01/21 09:28:18;;;;;;;;;;;-0.50;99.90;;;;;;4974377;28;212128;-72
2023/01/21 09:30:45;;;;;;;;;;;-0.50;99.90;;;;;;5046751;28;20304;-72
2023/01/21 09:33:11;;;;;;;;;;;-0.50;99.90;;;;;;4975294;28;160006;-72
2023/01/21 09:35:37;;;;;;;;;;;-0.50;99.90;;;;;;5029475;28;19932;-72
2023/01/21 09:38:03;;;;;;;;;;;-0.50;99.90;;;;;;4972415;28;213814;-70
2023/01/21 09:40:29;;;;;;;;;;;-0.50;99.90;;;;;;5032944;28;20581;-73
2023/01/21 09:42:55;;;;;;;;;;;-0.50;99.90;;;;;;4992313;28;206286;-72
2023/01/21 09:45:21;;;;;;;;;;;-0.50;99.90;;;;;;5038246;28;19936;-73
2023/01/21 09:47:48;;;;;;;;;;;-0.50;99.90;;;;;;4992280;28;209488;-72
2023/01/21 09:50:15;;;;;;;;;;;-0.50;99.90;;;;;;5049323;28;19929;-72
2023/01/21 09:52:45;;;;;;;;;;;-0.40;99.90;;;;;;4993210;28;208930;-72
2023/01/21 09:55:23;;;;;;;;;;;-0.40;99.90;;;;;;5017799;28;19936;-72
2023/01/21 09:57:52;;;;;;;;;;;-0.40;99.90;;;;;;4971329;28;141357;-72
2023/01/21 10:00:38;;;;;;;;;;;-0.40;99.90;;;;;;5005146;28;19929;-72
2023/01/21 10:03:19;;;;;;;;;;;-0.40;99.90;;;;;;4956770;28;105745;-72
2023/01/21 10:05:51;;;;;;;;;;;-0.30;99.90;;;;;;5025528;28;19921;-73
2023/01/21 10:08:23;;;;;;;;;;;-0.20;99.90;;;;;;4992152;28;210054;-73
2023/01/21 10:10:59;;;;;;;;;;;-0.20;99.90;;;;;;5003255;28;19921;-73
2023/01/21 10:13:36;;;;;;;;;;;-0.20;99.90;;;;;;4984178;28;206358;-71
2023/01/21 10:16:17;;;;;;;;;;;-0.10;99.90;;;;;;5042749;28;20393;-72
2023/01/21 10:18:45;;;;;;;;;;;-0.10;99.90;;;;;;4987470;28;209327;-72
2023/01/21 10:21:14;;;;;;;;;;;0.00;99.90;;;;;;5027390;28;19943;-71
2023/01/21 10:23:43;;;;;;;;;;;0.10;99.90;;;;;;4998204;28;209363;-72
2023/01/21 10:26:11;;;;;;;;;;;0.00;99.90;;;;;;5046245;28;19929;-72
2023/01/21 10:28:41;;;;;;;;;;;0.10;99.90;;;;;;4958745;28;209628;-72
2023/01/21 10:31:15;;;;;;;;;;;0.10;99.90;;;;;;5023020;28;19924;-72
2023/01/21 10:33:41;;;;;;;;;;;0.20;99.90;;;;;;4989095;28;210665;-72
2023/01/21 10:36:25;;;;;;;;;;;0.30;99.90;;;;;;5033664;28;19920;-72
2023/01/21 10:39:10;;;;;;;;;;;0.30;99.90;;;;;;4971996;28;208158;-72
2023/01/21 10:41:51;;;;;;;;;;;0.50;99.90;;;;;;5038196;28;19924;-73
2023/01/21 10:44:17;;;;;;;;;;;0.60;99.90;;;;;;4991537;28;215310;-73
2023/01/21 10:46:59;;;;;;;;;;;0.70;99.90;;;;;;5064024;28;19928;-73
2023/01/21 10:49:43;;;;;;;;;;;0.80;99.90;;;;;;5006284;28;74087;-73
2023/01/21 10:52:20;;;;;;;;;;;0.80;99.90;;;;;;5059983;28;19929;-73
2023/01/21 10:54:50;;;;;;;;;;;0.80;99.90;;;;;;4999043;28;209113;-73
2023/01/21 10:57:29;;;;;;;;;;;0.90;99.90;;;;;;5057420;28;19925;-73
2023/01/21 10:59:57;;;;;;;;;;;0.90;99.90;;;;;;4962242;28;206726;-73
2023/01/21 11:02:32;;;;;;;;;;;0.90;99.90;;;;;;5025085;28;20444;-73
2023/01/21 11:05:03;;;;;;;;;;;1.00;99.90;;;;;;4971618;28;19928;-73
2023/01/21 11:07:31;;;;;;;;;;;1.00;99.90;;;;;;5018962;28;208376;-74
2023/01/21 11:09:59;;;;;;;;;;;1.00;99.90;;;;;;4989404;28;202641;-73
2023/01/21 11:12:25;;;;;;;;;;;1.10;99.90;;;;;;5050555;28;213764;-73
2023/01/21 11:14:59;;;;;;;;;;;1.10;99.90;;;;;;4995614;28;149694;-74
2023/01/21 11:17:30;;;;;;;;;;;1.10;99.90;;;;;;5031909;28;209568;-74
2023/01/21 11:19:58;;;;;;;;;;;1.20;99.90;;;;;;4993306;28;207505;-72
2023/01/21 11:22:27;;;;;;;;;;;1.20;99.90;;;;;;5024187;28;20331;-72
2023/01/21 11:24:53;;;;;;;;;;;1.30;99.90;;;;;;4962524;28;207507;-72
2023/01/21 11:27:33;;;;;;;;;;;1.40;99.90;;;;;;5056927;28;19931;-72
2023/01/21 11:29:59;;;;;;;;;;;1.40;99.90;;;;;;4997964;28;206232;-72
2023/01/21 11:32:29;;;;;;;;;;;1.50;99.90;;;;;;5047099;28;208738;-72
2023/01/21 11:35:04;;;;;;;;;;;1.50;99.90;;;;;;5021767;28;276562;-72
2023/01/21 11:37:31;;;;;;;;;;;1.50;99.90;;;;;;5022850;28;211016;-72
2023/01/21 11:40:13;;;;;;;;;;;1.60;99.90;;;;;;5013987;28;19932;-72
2023/01/21 11:42:55;;;;;;;;;;;1.70;99.90;;;;;;5019276;28;221520;-72
2023/01/21 11:45:31;;;;;;;;;;;1.70;99.90;;;;;;5038035;28;20580;-71
2023/01/21 11:47:58;;;;;;;;;;;1.80;99.90;;;;;;5001791;28;208115;-71
2023/01/21 11:50:34;;;;;;;;;;;1.90;99.90;;;;;;5039719;28;19931;-72
2023/01/21 11:53:06;;;;;;;;;;;1.90;99.90;;;;;;4990706;28;211296;-72
2023/01/21 11:55:40;;;;;;;;;;;2.00;99.90;;;;;;5065783;28;19932;-72
2023/01/21 11:58:15;;;;;;;;;;;2.10;99.90;;;;;;5005692;28;211330;-73
2023/01/21 12:00:44;;;;;;;;;;;2.10;99.90;;;;;;5046199;28;19959;-73
2023/01/21 12:03:13;;;;;;;;;;;2.20;99.90;;;;;;4978845;28;158499;-72
2023/01/21 12:05:41;;;;;;;;;;;2.10;99.90;;;;;;5023359;28;19922;-71
2023/01/21 12:08:24;;;;;;;;;;;2.20;99.90;;;;;;4985882;28;208011;-76
2023/01/21 12:10:54;;;;;;;;;;;2.30;99.90;;;;;;5039633;28;19932;-74
2023/01/21 12:13:25;;;;;;;;;;;2.30;99.90;;;;;;4996892;28;206861;-75
2023/01/21 12:16:06;;;;;;;;;;;2.30;99.90;;;;;;5051278;28;19927;-75
2023/01/21 12:18:33;;;;;;;;;;;2.20;99.90;;;;;;4998851;28;208716;-75
2023/01/21 12:21:18;;;;;;;;;;;2.30;99.90;;;;;;5050704;28;19929;-74
2023/01/21 12:24:01;;;;;;;;;;;2.30;99.90;;;;;;5007143;28;220831;-74
2023/01/21 12:26:30;;;;;;;;;;;2.40;99.90;;;;;;5081324;28;19931;-74
2023/01/21 12:29:00;;;;;;;;;;;3.50;99.90;;;;;;4985554;28;226882;-75
2023/01/21 12:31:30;;;;;;;;;;;3.80;99.90;;;;;;5031430;28;20420;-74
2023/01/21 12:34:03;;;;;;;;;;;4.00;99.90;;;;;;5000887;28;247494;-75
2023/01/21 12:36:35;;;;;;;;;;;4.00;99.90;;;;;;5040542;28;20685;-75
2023/01/21 12:39:18;;;;;;;;;;;3.90;99.90;;;;;;5020709;28;208837;-74
2023/01/21 12:41:47;;;;;;;;;;;3.70;99.90;;;;;;5059963;28;19939;-75
2023/01/21 12:44:24;;;;;;;;;;;4.50;99.90;;;;;;4986630;28;200208;-74
2023/01/21 12:46:52;;;;;;;;;;;5.50;99.90;;;;;;5042035;28;19928;-74
2023/01/21 12:49:21;;;;;;;;;;;6.70;99.90;;;;;;4994389;28;244099;-74
2023/01/21 12:52:09;;;;;;;;;;;8.30;99.90;;;;;;5047877;28;20561;-75
2023/01/21 12:54:39;;;;;;;;;;;9.50;99.90;;;;;;4992531;28;208375;-75
2023/01/21 12:57:26;;;;;;;;;;;10.60;99.90;;;;;;5025966;28;19932;-75
2023/01/21 13:00:01;;;;;;;;;;;11.10;99.90;;;;;;4961858;28;215471;-75
2023/01/21 13:02:38;;;;;;;;;;;11.20;99.90;;;;;;5051399;28;218765;-75
2023/01/21 13:05:20;;;;;;;;;;;9.80;99.90;;;;;;4991226;28;19936;-74
2023/01/21 13:07:51;;;;;;;;;;;8.70;99.90;;;;;;4993397;28;209263;-74
2023/01/21 13:10:27;;;;;;;;;;;9.40;99.90;;;;;;5054257;28;20102;-75
2023/01/21 13:12:57;;;;;;;;;;;9.20;99.90;;;;;;4996655;28;212835;-74
2023/01/21 13:15:28;;;;;;;;;;;9.90;99.90;;;;;;5038070;28;19925;-75
2023/01/21 13:17:56;;;;;;;;;;;10.00;99.90;;;;;;5001254;28;208481;-74
2023/01/21 13:20:22;;;;;;;;;;;9.60;99.90;;;;;;5073512;28;19928;-73
2023/01/21 13:22:57;;;;;;;;;;;8.70;99.90;;;;;;5021041;28;208801;-74
2023/01/21 13:25:39;;;;;;;;;;;8.00;99.90;;;;;;5049816;28;19924;-74
2023/01/21 13:28:20;;;;;;;;;;;7.50;99.90;;;;;;5006192;28;197470;-74
2023/01/21 13:30:51;;;;;;;;;;;8.00;99.90;;;;;;5045201;28;19929;-75
2023/01/21 13:33:19;;;;;;;;;;;9.60;99.90;;;;;;5003274;28;207144;-74
2023/01/21 13:36:01;;;;;;;;;;;10.50;99.90;;;;;;5058520;28;19928;-74
2023/01/21 13:38:46;;;;;;;;;;;11.30;99.90;;;;;;4996573;28;210295;-74
2023/01/21 13:41:17;;;;;;;;;;;12.20;99.90;;;;;;5033096;28;19929;-75
2023/01/21 13:43:54;;;;;;;;;;;12.50;99.90;;;;;;4991284;28;214242;-75
2023/01/21 13:46:37;;;;;;;;;;;12.30;99.80;;;;;;5067863;28;19921;-76
2023/01/21 13:49:26;;;;;;;;;;;12.80;99.90;;;;;;4996736;28;206533;-75
2023/01/21 13:52:01;;;;;;;;;;;13.20;99.40;;;;;;5009751;28;19992;-74
2023/01/21 13:54:30;;;;;;;;;;;13.10;98.40;;;;;;4939776;28;210098;-74
2023/01/21 13:57:06;;;;;;;;;;;12.80;98.10;;;;;;5011351;28;19933;-73
2023/01/21 13:59:44;;;;;;;;;;;12.60;97.30;;;;;;4978964;28;207831;-74
2023/01/21 14:02:14;;;;;;;;;;;12.40;98.10;;;;;;5012184;28;19908;-74
2023/01/21 14:04:47;;;;;;;;;;;12.90;98.50;;;;;;4967530;28;207531;-74
2023/01/21 14:07:16;;;;;;;;;;;12.60;97.30;;;;;;5031954;28;19925;-74
2023/01/21 14:10:05;;;;;;;;;;;12.70;97.00;;;;;;4979307;28;98545;-74
2023/01/21 14:12:34;;;;;;;;;;;12.80;97.80;;;;;;4985114;28;73885;-74
2023/01/21 14:15:11;;;;;;;;;;;13.00;97.90;;;;;;5005050;28;19925;-73
2023/01/21 14:17:37;;;;;;;;;;;13.00;97.40;;;;;;4972399;28;257767;-72
2023/01/21 14:20:09;;;;;;;;;;;12.60;95.70;;;;;;5047915;28;19967;-72
2023/01/21 14:22:40;;;;;;;;;;;12.60;97.40;;;;;;5011354;28;172585;-73
2023/01/21 14:25:42;;;;;;;;;;;12.80;97.00;;;;;;5045272;28;19936;-73
2023/01/21 14:28:31;;;;;;;;;;;12.60;97.20;;;;;;4939723;28;193041;-73
2023/01/21 14:31:09;;;;;;;;;;;12.00;97.30;;;;;;4975029;28;20351;-73